createdAt,value
2022-12-15T00:00:17.015Z,100060.40
2022-12-15T00:03:25.740Z,100062.20
2022-12-15T00:06:12.174Z,100063.20
2022-12-15T00:08:59.009Z,100068.40
2022-12-15T00:11:45.370Z,100058.20
2022-12-15T00:14:31.723Z,100059.20
2022-12-15T00:17:18.396Z,100058.60
2022-12-15T00:20:04.719Z,100064.60
2022-12-15T00:22:51.536Z,100065.80
2022-12-15T00:25:37.975Z,100068.40
2022-12-15T00:28:24.178Z,100062.20
2022-12-15T00:31:10.732Z,100060.40
2022-12-15T00:33:57.524Z,100066.80
2022-12-15T00:36:44.032Z,100066.40
2022-12-15T00:39:11.736Z,100065.60
2022-12-15T00:41:39.472Z,100064.20
2022-12-15T00:44:07.298Z,100072.40
2022-12-15T00:46:53.719Z,100074.00
2022-12-15T00:49:49.286Z,100073.00
2022-12-15T00:52:36.983Z,100059.00
2022-12-15T00:55:40.970Z,100062.80
2022-12-15T00:58:27.285Z,100063.20
2022-12-15T01:01:13.601Z,100057.00
2022-12-15T01:04:00.176Z,100059.00
2022-12-15T01:06:46.584Z,100057.00
2022-12-15T01:09:32.722Z,100059.80
2022-12-15T01:12:19.089Z,100066.80
2022-12-15T01:15:05.484Z,100066.80
2022-12-15T01:17:51.736Z,100074.00
2022-12-15T01:20:19.695Z,100074.20
2022-12-15T01:22:50.752Z,100071.00
2022-12-15T01:25:21.690Z,100074.00
2022-12-15T01:27:50.244Z,100082.00
2022-12-15T01:30:22.354Z,100082.80
2022-12-15T01:32:51.181Z,100087.20
2022-12-15T01:35:20.689Z,100091.20
2022-12-15T01:37:50.164Z,100092.40
2022-12-15T01:40:39.555Z,100091.40
2022-12-15T01:43:32.777Z,100097.60
2022-12-15T01:46:17.703Z,100095.80
2022-12-15T01:48:59.560Z,100093.60
2022-12-15T01:51:39.284Z,100091.60
2022-12-15T01:54:14.253Z,100093.80
2022-12-15T01:56:49.381Z,100092.80
2022-12-15T01:59:28.117Z,100096.80
2022-12-15T02:01:55.900Z,100094.40
2022-12-15T02:04:24.560Z,100098.40
2022-12-15T02:06:53.109Z,100095.40
2022-12-15T02:09:24.537Z,100096.60
2022-12-15T02:12:12.052Z,100094.80
2022-12-15T02:15:13.800Z,100095.60
2022-12-15T02:17:41.455Z,100098.00
2022-12-15T02:20:41.853Z,100092.60
2022-12-15T02:23:40.173Z,100100.80
2022-12-15T02:26:28.349Z,100106.60
2022-12-15T02:29:54.749Z,100109.60
2022-12-15T02:32:31.222Z,100108.40
2022-12-15T02:35:08.776Z,100113.80
2022-12-15T02:37:40.190Z,100115.40
2022-12-15T02:40:10.966Z,100113.40
2022-12-15T02:42:52.980Z,100112.00
2022-12-15T02:45:31.911Z,100111.00
2022-12-15T02:48:28.505Z,100111.80
2022-12-15T02:51:31.776Z,100118.20
2022-12-15T02:54:27.466Z,100119.00
2022-12-15T02:57:12.843Z,100114.60
2022-12-15T03:00:00.336Z,100106.40
2022-12-15T03:02:34.455Z,100106.00
2022-12-15T03:05:03.004Z,100103.40
2022-12-15T03:07:30.693Z,100104.80
2022-12-15T03:10:01.796Z,100119.00
2022-12-15T03:12:29.658Z,100130.20
2022-12-15T03:14:58.012Z,100120.60
2022-12-15T03:17:25.741Z,100124.40
2022-12-15T03:19:53.397Z,100115.40
2022-12-15T03:22:22.071Z,100115.20
2022-12-15T03:24:49.827Z,100119.60
2022-12-15T03:27:17.497Z,100126.80
2022-12-15T03:29:45.324Z,100126.40
2022-12-15T03:32:13.115Z,100127.40
2022-12-15T03:34:41.833Z,100124.20
2022-12-15T03:37:09.599Z,100128.60
2022-12-15T03:39:37.298Z,100135.20
2022-12-15T03:42:05.320Z,100140.40
2022-12-15T03:44:33.081Z,100138.00
2022-12-15T03:47:03.467Z,100134.80
2022-12-15T03:49:31.684Z,100130.80
2022-12-15T03:51:59.374Z,100131.20
2022-12-15T03:54:27.009Z,100137.80
2022-12-15T03:56:54.770Z,100136.20
2022-12-15T03:59:22.421Z,100137.00
2022-12-15T04:01:50.360Z,100137.80
2022-12-15T04:04:18.279Z,100133.20
2022-12-15T04:06:46.161Z,100135.20
2022-12-15T04:09:13.863Z,100136.00
2022-12-15T04:11:41.560Z,100144.60
2022-12-15T04:14:09.897Z,100145.00
2022-12-15T04:16:37.686Z,100142.80
2022-12-15T04:19:23.909Z,100135.80
2022-12-15T04:21:51.596Z,100137.60
2022-12-15T04:24:37.888Z,100139.60
2022-12-15T04:27:24.111Z,100136.20
2022-12-15T04:30:10.337Z,100143.40
2022-12-15T04:32:56.595Z,100137.80
2022-12-15T04:35:43.076Z,100131.80
2022-12-15T04:38:34.241Z,100135.00
2022-12-15T04:41:20.698Z,100134.80
2022-12-15T04:44:07.352Z,100138.00
2022-12-15T04:46:53.796Z,100135.20
2022-12-15T04:49:40.170Z,100136.20
2022-12-15T04:52:26.338Z,100139.60
2022-12-15T04:55:13.028Z,100142.80
2022-12-15T04:57:59.406Z,100140.00
2022-12-15T05:00:45.645Z,100146.60
2022-12-15T05:03:32.462Z,100146.80
2022-12-15T05:06:19.285Z,100142.80
2022-12-15T05:09:05.527Z,100145.00
2022-12-15T05:11:51.907Z,100150.40
2022-12-15T05:14:38.132Z,100153.40
2022-12-15T05:17:24.372Z,100154.40
2022-12-15T05:20:10.748Z,100155.40
2022-12-15T05:22:56.843Z,100156.80
2022-12-15T05:25:43.205Z,100157.60
2022-12-15T05:28:29.542Z,100164.40
2022-12-15T05:31:15.747Z,100157.60
2022-12-15T05:33:43.825Z,100163.40
2022-12-15T05:36:11.485Z,100159.20
2022-12-15T05:38:39.221Z,100156.20
2022-12-15T05:41:07.363Z,100159.00
2022-12-15T05:43:35.369Z,100164.80
2022-12-15T05:46:05.150Z,100165.60
2022-12-15T05:48:32.977Z,100168.20
2022-12-15T05:51:10.845Z,100166.80
2022-12-15T05:53:40.931Z,100169.20
2022-12-15T05:56:14.933Z,100163.20
2022-12-15T05:58:45.423Z,100161.80
2022-12-15T06:01:17.386Z,100163.80
2022-12-15T06:03:46.016Z,100163.40
2022-12-15T06:06:14.180Z,100162.40
2022-12-15T06:08:43.398Z,100168.00
2022-12-15T06:11:17.950Z,100169.20
2022-12-15T06:13:46.843Z,100165.80
2022-12-15T06:16:20.391Z,100170.80
2022-12-15T06:18:54.086Z,100171.60
2022-12-15T06:21:29.025Z,100170.40
2022-12-15T06:23:57.694Z,100176.40
2022-12-15T06:26:38.310Z,100178.20
2022-12-15T06:29:09.155Z,100176.00
2022-12-15T06:31:39.382Z,100169.60
2022-12-15T06:34:12.551Z,100171.20
2022-12-15T06:36:40.689Z,100174.20
2022-12-15T06:39:13.173Z,100172.00
2022-12-15T06:41:42.605Z,100172.20
2022-12-15T06:44:15.784Z,100172.20
2022-12-15T06:46:45.705Z,100174.60
2022-12-15T06:49:14.552Z,100171.40
2022-12-15T06:51:43.962Z,100177.60
2022-12-15T06:54:11.869Z,100179.40
2022-12-15T06:56:40.000Z,100182.20
2022-12-15T06:59:08.512Z,100180.80
2022-12-15T07:01:36.530Z,100180.80
2022-12-15T07:04:05.624Z,100179.00
2022-12-15T07:06:38.432Z,100185.80
2022-12-15T07:09:11.687Z,100181.20
2022-12-15T07:11:40.447Z,100182.80
2022-12-15T07:14:09.925Z,100189.00
2022-12-15T07:16:37.795Z,100186.20
2022-12-15T07:19:05.752Z,100192.40
2022-12-15T07:21:33.479Z,100187.20
2022-12-15T07:24:02.186Z,100187.80
2022-12-15T07:26:30.574Z,100176.00
2022-12-15T07:28:58.416Z,100179.40
2022-12-15T07:31:27.143Z,100185.00
2022-12-15T07:33:55.155Z,100189.80
2022-12-15T07:36:23.005Z,100190.20
2022-12-15T07:38:51.567Z,100188.20
2022-12-15T07:41:20.564Z,100194.60
2022-12-15T07:43:48.829Z,100201.20
2022-12-15T07:46:18.937Z,100200.20
2022-12-15T07:48:50.504Z,100203.60
2022-12-15T07:51:20.919Z,100206.80
2022-12-15T07:53:51.971Z,100209.00
2022-12-15T07:56:20.638Z,100206.60
2022-12-15T07:58:49.553Z,100201.40
2022-12-15T08:01:17.766Z,100211.00
2022-12-15T08:03:45.835Z,100206.40
2022-12-15T08:06:15.549Z,100208.60
2022-12-15T08:08:50.560Z,100214.20
2022-12-15T08:11:22.072Z,100218.60
2022-12-15T08:14:02.641Z,100225.00
2022-12-15T08:16:31.754Z,100219.80
2022-12-15T08:18:59.715Z,100218.20
2022-12-15T08:21:27.452Z,100217.40
2022-12-15T08:23:55.237Z,100218.80
2022-12-15T08:26:29.795Z,100221.60
2022-12-15T08:29:11.819Z,100227.60
2022-12-15T08:31:45.816Z,100223.80
2022-12-15T08:34:13.701Z,100225.40
2022-12-15T08:36:41.464Z,100229.00
2022-12-15T08:39:09.169Z,100229.00
2022-12-15T08:41:37.067Z,100233.40
2022-12-15T08:44:05.281Z,100231.80
2022-12-15T08:46:34.580Z,100238.20
2022-12-15T08:49:03.742Z,100238.60
2022-12-15T08:51:33.593Z,100239.80
2022-12-15T08:54:02.347Z,100247.40
2022-12-15T08:56:30.324Z,100249.00
2022-12-15T08:59:01.448Z,100245.20
2022-12-15T09:01:32.652Z,100239.00
2022-12-15T09:04:03.952Z,100243.40
2022-12-15T09:06:35.528Z,100243.60
2022-12-15T09:09:07.838Z,100251.00
2022-12-15T09:11:35.841Z,100263.40
2022-12-15T09:14:04.406Z,100262.80
2022-12-15T09:16:32.285Z,100266.80
2022-12-15T09:19:01.001Z,100267.40
2022-12-15T09:21:31.022Z,100268.40
2022-12-15T09:24:01.952Z,100264.80
2022-12-15T09:26:34.091Z,100268.40
2022-12-15T09:29:02.408Z,100263.80
2022-12-15T09:31:37.674Z,100272.00
2022-12-15T09:34:05.454Z,100273.60
2022-12-15T09:36:33.547Z,100276.80
2022-12-15T09:39:02.717Z,100276.60
2022-12-15T09:41:34.651Z,100272.00
2022-12-15T09:44:18.962Z,100273.40
2022-12-15T09:47:12.955Z,100277.20
2022-12-15T09:49:57.122Z,100275.80
2022-12-15T09:52:31.603Z,100277.20
2022-12-15T09:55:01.863Z,100282.40
2022-12-15T09:57:57.012Z,100284.20
2022-12-15T10:00:36.966Z,100282.00
2022-12-15T10:03:39.193Z,100287.00
2022-12-15T10:06:21.162Z,100289.00
2022-12-15T10:08:58.325Z,100290.80
2022-12-15T10:11:50.660Z,100285.20
2022-12-15T10:14:49.999Z,100287.80
2022-12-15T10:17:52.503Z,100289.40
2022-12-15T10:20:28.705Z,100291.60
2022-12-15T10:23:02.478Z,100299.20
2022-12-15T10:25:33.139Z,100298.80
2022-12-15T10:28:51.036Z,100303.00
2022-12-15T10:31:36.604Z,100308.00
2022-12-15T10:34:18.989Z,100303.60
2022-12-15T10:36:52.562Z,100309.40
2022-12-15T10:39:23.374Z,100312.20
2022-12-15T10:42:11.802Z,100316.20
2022-12-15T10:44:43.998Z,100316.40
2022-12-15T10:47:28.769Z,100309.00
2022-12-15T10:50:27.557Z,100308.60
2022-12-15T10:52:55.723Z,100312.20
2022-12-15T10:55:41.991Z,100312.20
2022-12-15T10:58:22.956Z,100315.40
2022-12-15T11:01:08.949Z,100315.60
2022-12-15T11:03:39.174Z,100309.40
2022-12-15T11:06:18.246Z,100302.40
2022-12-15T11:08:47.452Z,100305.40
2022-12-15T11:11:53.270Z,100301.20
2022-12-15T11:14:40.784Z,100300.60
2022-12-15T11:17:08.505Z,100294.20
2022-12-15T11:20:02.038Z,100292.20
2022-12-15T11:22:55.242Z,100279.20
2022-12-15T11:25:41.951Z,100280.00
2022-12-15T11:28:32.465Z,100284.20
2022-12-15T11:31:38.480Z,100280.80
2022-12-15T11:34:37.754Z,100284.20
2022-12-15T11:37:52.701Z,100281.60
2022-12-15T11:40:36.640Z,100283.20
2022-12-15T11:43:37.735Z,100287.20
2022-12-15T11:46:30.188Z,100280.80
2022-12-15T11:49:50.841Z,100274.00
2022-12-15T11:52:50.592Z,100265.40
2022-12-15T11:55:30.256Z,100270.20
2022-12-15T11:58:17.913Z,100275.20
2022-12-15T12:01:21.908Z,100267.20
2022-12-15T12:03:49.616Z,100273.00
2022-12-15T12:06:40.124Z,100268.60
2022-12-15T12:09:36.765Z,100259.80
2022-12-15T12:12:36.165Z,100261.40
2022-12-15T12:15:29.315Z,100262.40
2022-12-15T12:18:31.623Z,100264.00
2022-12-15T12:21:15.462Z,100258.80
2022-12-15T12:23:55.942Z,100249.40
2022-12-15T12:26:38.857Z,100253.60
2022-12-15T12:29:23.049Z,100245.20
2022-12-15T12:31:56.439Z,100248.60
2022-12-15T12:34:55.001Z,100249.00
2022-12-15T12:37:54.932Z,100251.40
2022-12-15T12:40:35.186Z,100247.60
2022-12-15T12:43:08.668Z,100249.60
2022-12-15T12:45:54.216Z,100247.80
2022-12-15T12:48:39.637Z,100239.80
2022-12-15T12:51:19.333Z,100236.60
2022-12-15T12:53:48.678Z,100229.00
2022-12-15T12:56:42.195Z,100226.80
2022-12-15T12:59:28.738Z,100220.40
2022-12-15T13:02:20.431Z,100215.80
2022-12-15T13:05:05.026Z,100216.40
2022-12-15T13:07:36.618Z,100217.80
2022-12-15T13:10:17.957Z,100214.20
2022-12-15T13:12:51.623Z,100210.00
2022-12-15T13:15:49.156Z,100213.80
2022-12-15T13:18:25.223Z,100210.60
2022-12-15T13:20:57.892Z,100208.40
2022-12-15T13:23:26.748Z,100208.40
2022-12-15T13:26:00.179Z,100212.00
2022-12-15T13:28:38.233Z,100209.00
2022-12-15T13:31:22.184Z,100211.00
2022-12-15T13:33:53.412Z,100205.00
2022-12-15T13:36:39.339Z,100208.40
2022-12-15T13:39:12.983Z,100213.20
2022-12-15T13:41:49.892Z,100215.40
2022-12-15T13:44:35.555Z,100212.80
2022-12-15T13:47:16.270Z,100204.60
2022-12-15T13:50:08.479Z,100204.00
2022-12-15T13:55:52.573Z,100187.00
2022-12-15T13:58:23.049Z,100192.40
2022-12-15T14:00:55.428Z,100187.00
2022-12-15T14:03:24.304Z,100180.00
2022-12-15T14:08:47.625Z,100180.20
2022-12-15T14:11:51.205Z,100190.20
2022-12-15T14:14:22.181Z,100189.00
2022-12-15T14:16:59.308Z,100193.00
2022-12-15T14:19:38.932Z,100187.80
2022-12-15T14:22:28.635Z,100192.00
2022-12-15T14:25:14.091Z,100184.60
2022-12-15T14:27:42.107Z,100193.60
2022-12-15T14:30:20.180Z,100193.80
2022-12-15T14:32:59.638Z,100194.80
2022-12-15T14:35:55.232Z,100191.20
2022-12-15T14:38:38.729Z,100200.60
2022-12-15T14:41:07.823Z,100203.80
2022-12-15T14:43:39.824Z,100206.00
2022-12-15T14:46:14.924Z,100206.20
2022-12-15T14:49:21.333Z,100211.20
2022-12-15T14:51:57.591Z,100219.00
2022-12-15T14:54:49.747Z,100220.00
2022-12-15T14:57:37.810Z,100220.60
2022-12-15T15:00:33.661Z,100222.60
2022-12-15T15:03:14.143Z,100189.60
2022-12-15T15:06:05.633Z,100218.20
2022-12-15T15:08:54.732Z,100219.20
2022-12-15T15:11:47.005Z,100213.40
2022-12-15T15:14:19.530Z,100215.00
2022-12-15T15:17:03.208Z,100218.60
2022-12-15T15:19:39.043Z,100215.80
2022-12-15T15:22:29.967Z,100217.80
2022-12-15T15:24:57.668Z,100222.40
2022-12-15T15:27:42.259Z,100219.60
2022-12-15T15:30:23.955Z,100219.80
2022-12-15T15:32:59.470Z,100221.60
2022-12-15T15:35:32.588Z,100226.40
2022-12-15T15:38:18.643Z,100220.60
2022-12-15T15:41:30.166Z,100218.00
2022-12-15T15:44:01.681Z,100223.60
2022-12-15T15:46:34.153Z,100226.20
2022-12-15T15:49:07.300Z,100218.60
2022-12-15T15:51:36.035Z,100223.60
2022-12-15T15:54:14.246Z,100228.40
2022-12-15T15:56:42.098Z,100225.40
2022-12-15T15:59:16.542Z,100228.60
2022-12-15T16:01:48.519Z,100231.00
2022-12-15T16:04:16.279Z,100232.40
2022-12-15T16:06:47.597Z,100234.60
2022-12-15T16:09:16.962Z,100233.80
2022-12-15T16:11:46.518Z,100236.80
2022-12-15T16:14:17.285Z,100238.40
2022-12-15T16:16:45.276Z,100241.20
2022-12-15T16:19:13.087Z,100240.80
2022-12-15T16:21:42.865Z,100239.40
2022-12-15T16:24:17.830Z,100241.80
2022-12-15T16:26:50.450Z,100247.20
2022-12-15T16:29:21.285Z,100249.00
2022-12-15T16:31:49.410Z,100252.20
2022-12-15T16:34:19.059Z,100254.20
2022-12-15T16:36:47.175Z,100257.00
2022-12-15T16:39:31.168Z,100255.60
2022-12-15T16:41:58.984Z,100255.20
2022-12-15T16:44:29.201Z,100254.00
2022-12-15T16:46:58.906Z,100250.00
2022-12-15T16:49:27.827Z,100256.20
2022-12-15T16:51:55.757Z,100247.40
2022-12-15T16:54:28.399Z,100249.60
2022-12-15T16:56:59.881Z,100249.80
2022-12-15T16:59:35.842Z,100250.00
2022-12-15T17:02:27.007Z,100248.00
2022-12-15T17:04:55.867Z,100237.20
2022-12-15T17:07:26.980Z,100244.60
2022-12-15T17:09:54.810Z,100247.60
2022-12-15T17:12:22.591Z,100246.80
2022-12-15T17:14:50.335Z,100243.40
2022-12-15T17:17:20.122Z,100248.80
2022-12-15T17:20:19.708Z,100254.80
2022-12-15T17:22:37.344Z,100254.00
2022-12-15T17:25:05.842Z,100256.80
2022-12-15T17:27:33.630Z,100253.80
2022-12-15T17:30:01.900Z,100264.60
2022-12-15T17:32:29.801Z,100262.00
2022-12-15T17:34:57.525Z,100269.40
2022-12-15T17:37:27.053Z,100274.80
2022-12-15T17:39:58.194Z,100271.80
2022-12-15T17:42:25.926Z,100276.00
2022-12-15T17:44:54.020Z,100278.60
2022-12-15T17:47:24.114Z,100281.60
2022-12-15T17:49:51.924Z,100290.00
2022-12-15T17:52:28.325Z,100286.60
2022-12-15T17:54:57.204Z,100287.00
2022-12-15T17:57:25.446Z,100287.20
2022-12-15T17:59:53.335Z,100285.20
2022-12-15T18:02:21.035Z,100294.00
2022-12-15T18:04:48.858Z,100293.00
2022-12-15T18:07:21.438Z,100298.20
2022-12-15T18:09:51.866Z,100302.00
2022-12-15T18:12:25.687Z,100298.80
2022-12-15T18:14:55.944Z,100303.80
2022-12-15T18:17:26.307Z,100304.80
2022-12-15T18:19:54.002Z,100309.40
2022-12-15T18:22:24.616Z,100308.80
2022-12-15T18:24:54.286Z,100303.80
2022-12-15T18:27:28.321Z,100312.80
2022-12-15T18:29:56.904Z,100315.40
2022-12-15T18:32:27.664Z,100322.00
2022-12-15T18:34:55.799Z,100327.20
2022-12-15T18:37:25.197Z,100332.00
2022-12-15T18:39:53.454Z,100341.20
2022-12-15T18:42:22.850Z,100340.00
2022-12-15T18:44:53.277Z,100346.00
2022-12-15T18:47:24.864Z,100347.40
2022-12-15T18:49:52.768Z,100352.00
2022-12-15T18:52:23.810Z,100355.20
2022-12-15T18:54:54.041Z,100355.60
2022-12-15T18:57:39.335Z,100359.00
2022-12-15T19:00:09.961Z,100360.00
2022-12-15T19:02:37.814Z,100359.40
2022-12-15T19:05:06.283Z,100355.60
2022-12-15T19:07:35.897Z,100358.00
2022-12-15T19:10:03.993Z,100365.80
2022-12-15T19:12:31.757Z,100371.60
2022-12-15T19:15:00.811Z,100372.20
2022-12-15T19:17:47.139Z,100379.80
2022-12-15T19:20:39.324Z,100380.20
2022-12-15T19:23:07.238Z,100386.40
2022-12-15T19:25:35.741Z,100379.20
2022-12-15T19:28:05.858Z,100389.00
2022-12-15T19:30:40.204Z,100386.20
2022-12-15T19:33:12.326Z,100389.60
2022-12-15T19:35:44.738Z,100393.80
2022-12-15T19:38:27.226Z,100397.00
2022-12-15T19:40:57.665Z,100406.60
2022-12-15T19:43:26.365Z,100407.80
2022-12-15T19:45:54.425Z,100409.40
2022-12-15T19:48:24.123Z,100403.40
2022-12-15T19:50:54.790Z,100412.40
2022-12-15T19:53:32.413Z,100416.20
2022-12-15T19:56:01.529Z,100413.20
2022-12-15T19:58:35.608Z,100414.80
2022-12-15T20:01:12.196Z,100416.40
2022-12-15T20:03:46.756Z,100419.20
2022-12-15T20:06:28.480Z,100427.40
2022-12-15T20:08:56.913Z,100427.60
2022-12-15T20:11:32.659Z,100429.80
2022-12-15T20:14:01.944Z,100433.80
2022-12-15T20:16:29.696Z,100436.40
2022-12-15T20:18:57.402Z,100436.20
2022-12-15T20:21:32.388Z,100435.80
2022-12-15T20:24:07.301Z,100439.60
2022-12-15T20:26:37.857Z,100445.20
2022-12-15T20:29:20.726Z,100445.60
2022-12-15T20:31:48.557Z,100444.80
2022-12-15T20:34:16.452Z,100444.40
2022-12-15T20:36:44.697Z,100447.40
2022-12-15T20:39:29.712Z,100441.80
2022-12-15T20:41:57.971Z,100442.00
2022-12-15T20:44:25.707Z,100442.60
2022-12-15T20:46:54.512Z,100445.60
2022-12-15T20:49:23.948Z,100453.60
2022-12-15T20:51:51.821Z,100454.40
2022-12-15T20:54:22.495Z,100463.60
2022-12-15T20:56:50.809Z,100460.60
2022-12-15T20:59:18.867Z,100459.60
2022-12-15T21:01:46.908Z,100467.60
2022-12-15T21:04:25.942Z,100464.80
2022-12-15T21:06:55.986Z,100469.60
2022-12-15T21:09:24.673Z,100471.80
2022-12-15T21:11:54.079Z,100466.00
2022-12-15T21:14:23.911Z,100474.40
2022-12-15T21:16:51.813Z,100483.60
2022-12-15T21:19:21.281Z,100484.80
2022-12-15T21:21:55.341Z,100489.40
2022-12-15T21:24:28.768Z,100489.40
2022-12-15T21:26:56.533Z,100499.80
2022-12-15T21:29:28.193Z,100505.80
2022-12-15T21:31:55.947Z,100504.20
2022-12-15T21:34:23.714Z,100502.40
2022-12-15T21:39:40.837Z,100513.20
2022-12-15T21:42:16.080Z,100509.80
2022-12-15T21:44:44.710Z,100515.60
2022-12-15T21:47:47.337Z,100520.20
2022-12-15T21:50:17.478Z,100512.40
2022-12-15T21:52:46.890Z,100516.80
2022-12-15T21:55:22.055Z,100518.80
2022-12-15T21:57:50.059Z,100516.60
2022-12-15T22:00:21.242Z,100517.00
2022-12-15T22:02:51.931Z,100519.80
2022-12-15T22:05:23.118Z,100518.80
2022-12-15T22:07:51.803Z,100523.40
2022-12-15T22:10:19.627Z,100519.20
2022-12-15T22:12:58.945Z,100526.40
2022-12-15T22:15:28.933Z,100525.60
2022-12-15T22:17:56.748Z,100520.20
2022-12-15T22:20:25.114Z,100524.00
2022-12-15T22:22:52.848Z,100533.80
2022-12-15T22:25:25.808Z,100523.00
2022-12-15T22:27:54.756Z,100530.80
2022-12-15T22:30:26.924Z,100534.80
2022-12-15T22:32:54.762Z,100542.40
2022-12-15T22:35:25.861Z,100542.40
2022-12-15T22:37:53.987Z,100555.60
2022-12-15T22:40:24.351Z,100557.20
2022-12-15T22:42:57.971Z,100551.80
2022-12-15T22:45:25.693Z,100554.00
2022-12-15T22:47:54.945Z,100562.00
2022-12-15T22:50:26.552Z,100561.20
2022-12-15T22:52:55.238Z,100562.80
2022-12-15T22:55:24.404Z,100563.60
2022-12-15T22:58:05.296Z,100560.60
2022-12-15T23:00:33.006Z,100560.60
2022-12-15T23:03:01.139Z,100568.40
2022-12-15T23:05:28.869Z,100562.60
2022-12-15T23:07:56.811Z,100560.80
2022-12-15T23:10:43.409Z,100568.20
2022-12-15T23:13:11.178Z,100565.00
2022-12-15T23:15:57.687Z,100567.80
2022-12-15T23:18:25.431Z,100572.40
2022-12-15T23:20:53.903Z,100567.00
2022-12-15T23:23:22.457Z,100566.80
2022-12-15T23:25:50.129Z,100568.00
2022-12-15T23:28:18.111Z,100567.20
2022-12-15T23:30:51.784Z,100570.00
2022-12-15T23:33:20.395Z,100568.20
2022-12-15T23:35:48.366Z,100569.00
2022-12-15T23:38:16.122Z,100575.40
2022-12-15T23:40:52.767Z,100570.20
2022-12-15T23:43:22.421Z,100575.20
2022-12-15T23:46:06.076Z,100571.00
2022-12-15T23:48:39.226Z,100573.60
2022-12-15T23:51:16.945Z,100574.60
2022-12-15T23:53:46.953Z,100580.40
2022-12-15T23:56:19.493Z,100585.80
2022-12-15T23:58:53.932Z,100578.80
